createdAt,value
2022-12-11T00:01:13.873Z,100049.31
2022-12-11T00:03:42.674Z,100045.09
2022-12-11T00:06:16.426Z,100035.78
2022-12-11T00:08:45.435Z,100025.50
2022-12-11T00:11:14.829Z,100023.72
2022-12-11T00:13:43.317Z,100024.56
2022-12-11T00:16:12.182Z,100032.28
2022-12-11T00:18:40.495Z,100031.41
2022-12-11T00:21:15.804Z,100034.88
2022-12-11T00:23:44.773Z,100029.72
2022-12-11T00:26:16.088Z,100028.88
2022-12-11T00:28:45.548Z,100024.59
2022-12-11T00:31:17.975Z,100029.66
2022-12-11T00:33:49.249Z,100029.50
2022-12-11T00:36:21.479Z,100035.38
2022-12-11T00:38:50.082Z,100035.41
2022-12-11T00:41:19.023Z,100042.22
2022-12-11T00:43:47.810Z,100053.19
2022-12-11T00:46:16.146Z,100053.06
2022-12-11T00:48:44.447Z,100063.22
2022-12-11T00:51:12.900Z,100062.31
2022-12-11T00:53:42.587Z,100061.44
2022-12-11T00:56:12.844Z,100056.28
2022-12-11T00:58:41.212Z,100048.69
2022-12-11T01:01:11.561Z,100047.09
2022-12-11T01:03:40.059Z,100046.28
2022-12-11T01:06:09.206Z,100036.94
2022-12-11T01:08:38.855Z,100036.94
2022-12-11T01:11:10.526Z,100035.22
2022-12-11T01:13:40.033Z,100042.03
2022-12-11T01:16:10.244Z,100038.59
2022-12-11T01:18:39.294Z,100034.28
2022-12-11T01:21:08.964Z,100033.47
2022-12-11T01:23:38.025Z,100034.38
2022-12-11T01:26:10.091Z,100038.66
2022-12-11T01:28:38.837Z,100042.13
2022-12-11T01:31:10.344Z,100043.88
2022-12-11T01:33:38.759Z,100034.53
2022-12-11T01:36:09.778Z,100029.41
2022-12-11T01:38:38.119Z,100032.88
2022-12-11T01:41:07.672Z,100026.03
2022-12-11T01:43:56.665Z,100017.50
2022-12-11T01:46:25.519Z,100003.13
2022-12-11T01:48:54.133Z,100012.53
2022-12-11T01:51:23.889Z,100008.25
2022-12-11T01:53:58.557Z,100003.94
2022-12-11T01:56:27.274Z,99998.75
2022-12-11T01:59:00.770Z,99994.47
2022-12-11T02:01:33.746Z,99986.03
2022-12-11T02:04:03.030Z,99990.38
2022-12-11T02:06:39.771Z,99984.41
2022-12-11T02:09:11.334Z,99982.03
2022-12-11T02:11:48.890Z,99982.03
2022-12-11T02:14:28.916Z,99977.75
2022-12-11T02:17:02.205Z,99996.50
2022-12-11T02:19:46.179Z,100000.72
2022-12-11T02:22:23.801Z,99990.47
2022-12-11T02:25:05.640Z,99983.66
2022-12-11T02:27:38.540Z,99982.88
2022-12-11T02:30:09.682Z,99980.38
2022-12-11T02:32:44.690Z,99983.84
2022-12-11T02:35:19.272Z,99981.38
2022-12-11T02:37:52.286Z,99965.22
2022-12-11T02:40:26.234Z,99966.13
2022-12-11T02:42:57.483Z,99967.00
2022-12-11T02:45:29.447Z,99961.94
2022-12-11T02:48:00.372Z,99958.53
2022-12-11T02:50:30.465Z,99955.13
2022-12-11T02:52:59.814Z,99956.03
2022-12-11T02:55:31.064Z,99956.94
2022-12-11T02:58:06.983Z,99963.78
2022-12-11T03:00:36.876Z,99964.63
2022-12-11T03:03:05.612Z,99961.25
2022-12-11T03:05:34.532Z,99961.25
2022-12-11T03:08:03.879Z,99947.66
2022-12-11T03:10:32.238Z,99948.50
2022-12-11T03:13:01.753Z,99946.88
2022-12-11T03:15:36.048Z,99943.53
2022-12-11T03:18:15.368Z,99944.44
2022-12-11T03:20:47.582Z,99935.13
2022-12-11T03:23:22.440Z,99934.31
2022-12-11T03:25:56.019Z,99928.44
2022-12-11T03:28:30.865Z,99928.53
2022-12-11T03:31:03.225Z,99929.50
2022-12-11T03:33:36.103Z,99921.09
2022-12-11T03:36:08.623Z,99922.06
2022-12-11T03:38:42.849Z,99908.47
2022-12-11T03:41:13.789Z,99917.03
2022-12-11T03:43:43.503Z,99920.47
2022-12-11T03:46:14.854Z,99918.81
2022-12-11T03:48:47.800Z,99918.00
2022-12-11T03:51:18.574Z,99910.38
2022-12-11T03:53:48.769Z,99900.97
2022-12-11T03:56:19.495Z,99903.53
2022-12-11T03:58:47.805Z,99910.34
2022-12-11T04:01:16.130Z,99906.09
2022-12-11T04:03:45.807Z,99904.47
2022-12-11T04:06:14.094Z,99901.94
2022-12-11T04:08:42.463Z,99893.44
2022-12-11T04:11:29.897Z,99888.34
2022-12-11T04:14:15.583Z,99900.25
2022-12-11T04:16:43.865Z,99899.44
2022-12-11T04:19:31.010Z,99901.13
2022-12-11T04:22:16.652Z,99892.69
2022-12-11T04:24:45.102Z,99897.84
2022-12-11T04:27:13.331Z,99900.47
2022-12-11T04:29:41.582Z,99898.00
2022-12-11T04:32:09.934Z,99896.31
2022-12-11T04:34:40.840Z,99887.88
2022-12-11T04:37:10.138Z,99890.50
2022-12-11T04:39:38.424Z,99886.25
2022-12-11T04:42:06.728Z,99882.88
2022-12-11T04:44:35.553Z,99870.19
2022-12-11T04:47:03.982Z,99876.19
2022-12-11T04:49:32.292Z,99868.59
2022-12-11T04:52:01.992Z,99873.69
2022-12-11T04:54:30.537Z,99877.97
2022-12-11T04:56:58.846Z,99873.75
2022-12-11T04:59:27.171Z,99876.34
2022-12-11T05:01:55.860Z,99878.94
2022-12-11T05:04:24.303Z,99872.13
2022-12-11T05:06:53.086Z,99875.53
2022-12-11T05:09:22.749Z,99879.81
2022-12-11T05:11:51.830Z,99873.88
2022-12-11T05:14:20.360Z,99869.59
2022-12-11T05:16:48.616Z,99869.56
2022-12-11T05:19:17.175Z,99872.13
2022-12-11T05:21:45.532Z,99865.31
2022-12-11T05:24:13.955Z,99861.09
2022-12-11T05:26:43.938Z,99863.69
2022-12-11T05:29:12.391Z,99862.78
2022-12-11T05:31:40.679Z,99863.63
2022-12-11T05:34:08.970Z,99868.69
2022-12-11T05:36:37.292Z,99869.44
2022-12-11T05:39:06.223Z,99865.16
2022-12-11T05:41:34.998Z,99865.13
2022-12-11T05:44:05.046Z,99865.91
2022-12-11T05:46:34.005Z,99861.66
2022-12-11T05:49:03.312Z,99855.72
2022-12-11T05:51:34.326Z,99860.84
2022-12-11T05:54:03.038Z,99856.66
2022-12-11T05:56:33.262Z,99847.31
2022-12-11T05:59:02.588Z,99840.53
2022-12-11T06:01:34.564Z,99849.06
2022-12-11T06:04:04.027Z,99850.84
2022-12-11T06:06:32.944Z,99849.13
2022-12-11T06:09:02.616Z,99841.47
2022-12-11T06:11:33.156Z,99842.28
2022-12-11T06:14:03.124Z,99839.75
2022-12-11T06:16:33.271Z,99833.00
2022-12-11T06:19:01.891Z,99832.13
2022-12-11T06:21:32.291Z,99828.75
2022-12-11T06:24:03.311Z,99836.44
2022-12-11T06:26:32.174Z,99835.63
2022-12-11T06:29:00.680Z,99828.84
2022-12-11T06:31:29.509Z,99835.66
2022-12-11T06:33:59.184Z,99830.56
2022-12-11T06:36:27.499Z,99832.31
2022-12-11T06:38:56.625Z,99834.84
2022-12-11T06:41:24.922Z,99835.72
2022-12-11T06:43:53.509Z,99833.16
2022-12-11T06:46:22.412Z,99842.53
2022-12-11T06:48:51.159Z,99846.84
2022-12-11T06:51:23.172Z,99845.19
2022-12-11T06:53:56.248Z,99835.88
2022-12-11T06:56:25.609Z,99838.41
2022-12-11T06:58:54.205Z,99844.38
2022-12-11T07:01:24.238Z,99847.69
2022-12-11T07:03:54.749Z,99848.44
2022-12-11T07:06:25.163Z,99845.78
2022-12-11T07:08:53.585Z,99837.97
2022-12-11T07:11:22.709Z,99835.28
2022-12-11T07:13:51.661Z,99836.03
2022-12-11T07:16:20.352Z,99835.97
2022-12-11T07:18:51.423Z,99849.53
2022-12-11T07:21:20.795Z,99846.94
2022-12-11T07:23:51.463Z,99841.75
2022-12-11T07:26:22.653Z,99843.38
2022-12-11T07:28:51.461Z,99826.34
2022-12-11T07:31:22.317Z,99827.16
2022-12-11T07:33:55.435Z,99826.31
2022-12-11T07:36:25.028Z,99819.50
2022-12-11T07:38:55.171Z,99814.38
2022-12-11T07:41:24.366Z,99818.63
2022-12-11T07:43:55.693Z,99816.03
2022-12-11T07:46:26.386Z,99822.03
2022-12-11T07:48:55.696Z,99819.56
2022-12-11T07:51:27.864Z,99821.28
2022-12-11T07:53:59.794Z,99823.81
2022-12-11T07:56:29.042Z,99826.34
2022-12-11T07:59:00.071Z,99833.19
2022-12-11T08:01:30.569Z,99830.72
2022-12-11T08:03:59.186Z,99821.38
2022-12-11T08:06:29.133Z,99825.75
2022-12-11T08:09:00.251Z,99824.00
2022-12-11T08:11:29.564Z,99824.78
2022-12-11T08:13:59.319Z,99828.16
2022-12-11T08:16:28.365Z,99838.31
2022-12-11T08:18:57.000Z,99833.97
2022-12-11T08:21:26.627Z,99846.72
2022-12-11T08:23:55.836Z,99846.63
2022-12-11T08:26:27.114Z,99843.19
2022-12-11T08:28:55.728Z,99845.75
2022-12-11T08:31:24.039Z,99848.31
2022-12-11T08:33:52.804Z,99849.94
2022-12-11T08:36:23.004Z,99845.59
2022-12-11T08:38:52.355Z,99843.84
2022-12-11T08:41:23.010Z,99843.84
2022-12-11T08:43:55.209Z,99846.47
2022-12-11T08:46:25.496Z,99848.25
2022-12-11T08:48:55.580Z,99845.75
2022-12-11T08:51:27.274Z,99832.91
2022-12-11T08:53:56.930Z,99837.97
2022-12-11T08:56:26.072Z,99833.56
2022-12-11T08:58:55.974Z,99833.50
2022-12-11T09:01:26.151Z,99835.88
2022-12-11T09:03:56.634Z,99844.25
2022-12-11T09:06:28.398Z,99839.19
2022-12-11T09:08:57.692Z,99829.75
2022-12-11T09:11:28.278Z,99842.38
2022-12-11T09:14:00.956Z,99839.63
2022-12-11T09:16:34.120Z,99843.75
2022-12-11T09:19:02.439Z,99844.53
2022-12-11T09:21:31.961Z,99842.06
2022-12-11T09:24:02.502Z,99843.88
2022-12-11T09:26:31.491Z,99855.06
2022-12-11T09:29:03.605Z,99849.06
2022-12-11T09:31:33.973Z,99854.13
2022-12-11T09:34:04.589Z,99854.22
2022-12-11T09:36:33.733Z,99860.25
2022-12-11T09:39:03.338Z,99855.22
2022-12-11T09:41:38.533Z,99859.44
2022-12-11T09:44:39.428Z,99861.09
2022-12-11T09:47:18.859Z,99856.00
2022-12-11T09:49:50.986Z,99852.63
2022-12-11T09:52:24.903Z,99852.78
2022-12-11T09:54:56.163Z,99846.91
2022-12-11T09:57:48.135Z,99845.13
2022-12-11T10:00:22.372Z,99849.28
2022-12-11T10:03:15.726Z,99855.22
2022-12-11T10:05:52.279Z,99859.16
2022-12-11T10:08:31.721Z,99867.44
2022-12-11T10:11:11.160Z,99861.28
2022-12-11T10:13:52.586Z,99870.56
2022-12-11T10:16:36.058Z,99863.53
2022-12-11T10:19:04.867Z,99867.78
2022-12-11T10:21:41.209Z,99871.38
2022-12-11T10:24:41.941Z,99885.03
2022-12-11T10:27:16.349Z,99880.63
2022-12-11T10:29:44.663Z,99879.56
2022-12-11T10:32:24.363Z,99882.03
2022-12-11T10:35:01.386Z,99875.88
2022-12-11T10:37:29.961Z,99877.38
2022-12-11T10:39:58.276Z,99874.56
2022-12-11T10:42:26.613Z,99881.53
2022-12-11T10:45:00.593Z,99868.81
2022-12-11T10:47:31.347Z,99867.72
2022-12-11T10:50:02.203Z,99870.81
2022-12-11T10:52:34.554Z,99862.06
2022-12-11T10:55:05.531Z,99862.66
2022-12-11T10:57:36.206Z,99861.34
2022-12-11T11:00:07.628Z,99873.69
2022-12-11T11:02:40.402Z,99869.03
2022-12-11T11:05:17.875Z,99865.38
2022-12-11T11:07:46.133Z,99877.38
2022-12-11T11:10:19.198Z,99870.66
2022-12-11T11:12:49.850Z,99869.13
2022-12-11T11:15:21.418Z,99866.75
2022-12-11T11:17:55.890Z,99859.22
2022-12-11T11:20:26.099Z,99856.84
2022-12-11T11:22:57.315Z,99849.91
2022-12-11T11:25:27.910Z,99849.78
2022-12-11T11:27:57.827Z,99844.50
2022-12-11T11:30:28.493Z,99843.66
2022-12-11T11:33:00.954Z,99837.72
2022-12-11T11:35:30.645Z,99836.88
2022-12-11T11:38:05.057Z,99828.25
2022-12-11T11:40:40.879Z,99823.97
2022-12-11T11:43:18.780Z,99817.75
2022-12-11T11:45:55.060Z,99820.78
2022-12-11T11:48:37.745Z,99824.13
2022-12-11T11:51:09.488Z,99818.00
2022-12-11T11:53:41.838Z,99823.97
2022-12-11T11:56:23.443Z,99826.47
2022-12-11T11:59:02.317Z,99830.59
2022-12-11T12:01:31.683Z,99828.78
2022-12-11T12:04:04.015Z,99827.84
2022-12-11T12:06:54.606Z,99819.97
2022-12-11T12:09:40.663Z,99825.13
2022-12-11T12:12:25.485Z,99825.13
2022-12-11T12:15:07.692Z,99815.81
2022-12-11T12:17:49.245Z,99816.53
2022-12-11T12:20:31.987Z,99815.88
2022-12-11T12:23:21.113Z,99810.19
2022-12-11T12:25:57.221Z,99812.78
2022-12-11T12:28:37.709Z,99809.19
2022-12-11T12:31:22.899Z,99811.72
2022-12-11T12:33:59.692Z,99807.81
2022-12-11T12:36:37.718Z,99800.78
2022-12-11T12:39:18.065Z,99810.97
2022-12-11T12:41:58.520Z,99815.16
2022-12-11T12:44:35.913Z,99814.34
2022-12-11T12:47:10.535Z,99815.03
2022-12-11T12:49:42.948Z,99808.66
2022-12-11T12:52:18.289Z,99805.22
2022-12-11T12:55:03.825Z,99806.09
2022-12-11T12:57:33.143Z,99790.75
2022-12-11T13:00:01.470Z,99790.84
2022-12-11T13:02:30.849Z,99790.75
2022-12-11T13:05:01.875Z,99781.97
2022-12-11T13:07:33.444Z,99776.50
2022-12-11T13:10:06.729Z,99771.13
2022-12-11T13:12:43.546Z,99775.97
2022-12-11T13:15:44.877Z,99761.88
2022-12-11T13:18:35.053Z,99774.47
2022-12-11T13:21:04.241Z,99765.97
2022-12-11T13:23:35.288Z,99766.78
2022-12-11T13:26:05.836Z,99771.28
2022-12-11T13:28:47.811Z,99761.31
2022-12-11T13:31:32.226Z,99783.88
2022-12-11T13:34:10.604Z,99776.44
2022-12-11T13:36:41.194Z,99781.63
2022-12-11T13:39:19.726Z,99774.94
2022-12-11T13:41:53.424Z,99778.09
2022-12-11T13:44:26.185Z,99774.78
2022-12-11T13:46:57.003Z,99778.31
2022-12-11T13:49:27.982Z,99779.06
2022-12-11T13:51:58.959Z,99779.00
2022-12-11T13:54:29.896Z,99784.84
2022-12-11T13:57:02.121Z,99781.50
2022-12-11T13:59:33.947Z,99785.81
2022-12-11T14:02:06.721Z,99777.34
2022-12-11T14:04:35.974Z,99776.56
2022-12-11T14:07:09.075Z,99775.69
2022-12-11T14:09:41.308Z,99782.72
2022-12-11T14:12:17.869Z,99780.94
2022-12-11T14:14:51.134Z,99777.50
2022-12-11T14:17:25.327Z,99777.41
2022-12-11T14:19:57.251Z,99770.44
2022-12-11T14:22:28.312Z,99772.00
2022-12-11T14:25:01.001Z,99775.03
2022-12-11T14:27:31.237Z,99775.44
2022-12-11T14:29:59.829Z,99766.53
2022-12-11T14:32:36.071Z,99767.81
2022-12-11T14:35:07.853Z,99777.09
2022-12-11T14:37:37.748Z,99774.50
2022-12-11T14:40:10.755Z,99777.81
2022-12-11T14:42:45.403Z,99777.84
2022-12-11T14:45:22.024Z,99777.09
2022-12-11T14:47:52.048Z,99777.91
2022-12-11T14:50:24.209Z,99781.38
2022-12-11T14:52:55.822Z,99772.22
2022-12-11T14:55:28.473Z,99776.75
2022-12-11T14:58:00.132Z,99780.31
2022-12-11T15:00:30.404Z,99786.44
2022-12-11T15:03:01.285Z,99782.25
2022-12-11T15:05:34.469Z,99779.75
2022-12-11T15:08:24.923Z,99787.59
2022-12-11T15:11:08.195Z,99780.91
2022-12-11T15:13:40.395Z,99780.25
2022-12-11T15:16:10.291Z,99776.94
2022-12-11T15:18:43.123Z,99775.25
2022-12-11T15:21:13.398Z,99780.50
2022-12-11T15:23:53.054Z,99785.72
2022-12-11T15:26:35.130Z,99783.25
2022-12-11T15:29:05.848Z,99787.63
2022-12-11T15:31:36.243Z,99780.09
2022-12-11T15:34:04.803Z,99779.31
2022-12-11T15:36:35.934Z,99787.19
2022-12-11T15:39:05.730Z,99783.13
2022-12-11T15:41:35.829Z,99775.59
2022-12-11T15:44:05.512Z,99783.41
2022-12-11T15:46:37.605Z,99780.16
2022-12-11T15:49:12.620Z,99779.44
2022-12-11T15:51:43.122Z,99781.28
2022-12-11T15:54:12.008Z,99783.97
2022-12-11T15:56:44.225Z,99784.97
2022-12-11T15:59:13.254Z,99774.91
2022-12-11T16:01:41.774Z,99784.63
2022-12-11T16:04:11.932Z,99778.66
2022-12-11T16:06:45.331Z,99783.66
2022-12-11T16:09:13.656Z,99793.91
2022-12-11T16:11:43.439Z,99803.31
2022-12-11T16:14:11.755Z,99789.47
2022-12-11T16:16:40.103Z,99798.78
2022-12-11T16:19:08.617Z,99797.03
2022-12-11T16:21:36.875Z,99799.63
2022-12-11T16:24:05.864Z,99797.00
2022-12-11T16:26:34.449Z,99804.81
2022-12-11T16:29:04.394Z,99792.38
2022-12-11T16:31:33.247Z,99783.09
2022-12-11T16:34:01.650Z,99790.13
2022-12-11T16:36:30.036Z,99791.28
2022-12-11T16:38:58.416Z,99797.38
2022-12-11T16:41:26.796Z,99794.00
2022-12-11T16:43:55.546Z,99795.75
2022-12-11T16:46:25.647Z,99793.22
2022-12-11T16:48:54.088Z,99793.28
2022-12-11T16:51:22.578Z,99798.56
2022-12-11T16:53:51.092Z,99790.13
2022-12-11T16:56:19.675Z,99803.97
2022-12-11T16:58:49.511Z,99799.84
2022-12-11T17:01:17.990Z,99803.63
2022-12-11T17:03:47.826Z,99797.06
2022-12-11T17:06:18.169Z,99802.31
2022-12-11T17:08:46.974Z,99793.78
2022-12-11T17:11:17.035Z,99795.63
2022-12-11T17:13:46.304Z,99799.91
2022-12-11T17:16:17.073Z,99800.13
2022-12-11T17:18:47.275Z,99796.63
2022-12-11T17:21:18.370Z,99800.06
2022-12-11T17:23:47.053Z,99794.91
2022-12-11T17:26:16.016Z,99792.28
2022-12-11T17:28:44.531Z,99796.53
2022-12-11T17:31:15.664Z,99795.66
2022-12-11T17:33:45.077Z,99791.47
2022-12-11T17:36:17.029Z,99798.38
2022-12-11T17:38:45.814Z,99790.94
2022-12-11T17:41:20.505Z,99793.59
2022-12-11T17:43:49.961Z,99794.59
2022-12-11T17:46:19.065Z,99791.38
2022-12-11T17:48:47.658Z,99793.28
2022-12-11T17:51:22.171Z,99786.56
2022-12-11T17:53:50.981Z,99795.13
2022-12-11T17:56:19.254Z,99795.19
2022-12-11T17:58:47.642Z,99795.31
2022-12-11T18:01:16.252Z,99786.81
2022-12-11T18:03:44.717Z,99801.25
2022-12-11T18:06:17.344Z,99801.16
2022-12-11T18:08:46.159Z,99796.81
2022-12-11T18:11:16.870Z,99800.13
2022-12-11T18:13:46.678Z,99801.78
2022-12-11T18:16:18.215Z,99808.59
2022-12-11T18:18:47.358Z,99801.03
2022-12-11T18:21:19.448Z,99796.09
2022-12-11T18:23:47.856Z,99799.66
2022-12-11T18:26:17.515Z,99795.47
2022-12-11T18:28:47.282Z,99798.13
2022-12-11T18:31:16.855Z,99807.63
2022-12-11T18:33:46.012Z,99816.22
2022-12-11T18:36:17.448Z,99818.03
2022-12-11T18:38:47.158Z,99813.78
2022-12-11T18:41:17.024Z,99815.53
2022-12-11T18:43:45.702Z,99818.09
2022-12-11T18:46:17.705Z,99822.31
2022-12-11T18:48:47.196Z,99826.56
2022-12-11T18:51:18.958Z,99817.22
2022-12-11T18:53:47.397Z,99813.00
2022-12-11T18:56:18.989Z,99815.63
2022-12-11T18:58:48.120Z,99815.69
2022-12-11T19:01:20.668Z,99815.75
2022-12-11T19:03:49.635Z,99813.31
2022-12-11T19:06:21.526Z,99812.56
2022-12-11T19:08:49.940Z,99815.22
2022-12-11T19:11:19.567Z,99812.75
2022-12-11T19:13:48.786Z,99814.47
2022-12-11T19:16:18.640Z,99817.97
2022-12-11T19:18:47.498Z,99815.50
2022-12-11T19:21:17.496Z,99822.41
2022-12-11T19:23:48.053Z,99819.03
2022-12-11T19:26:18.645Z,99822.44
2022-12-11T19:28:47.128Z,99825.03
2022-12-11T19:31:18.874Z,99831.06
2022-12-11T19:33:47.534Z,99831.94
2022-12-11T19:36:18.157Z,99827.69
2022-12-11T19:38:48.606Z,99830.28
2022-12-11T19:41:20.013Z,99832.88
2022-12-11T19:43:48.770Z,99850.75
2022-12-11T19:46:18.549Z,99849.91
2022-12-11T19:48:49.464Z,99846.53
2022-12-11T19:51:21.887Z,99838.06
2022-12-11T19:53:51.856Z,99843.22
2022-12-11T19:56:20.900Z,99837.31
2022-12-11T19:58:49.952Z,99842.44
2022-12-11T20:01:25.902Z,99841.63
2022-12-11T20:03:55.013Z,99842.50
2022-12-11T20:06:23.770Z,99853.53
2022-12-11T20:08:53.639Z,99859.47
2022-12-11T20:11:22.556Z,99846.72
2022-12-11T20:13:52.128Z,99860.34
2022-12-11T20:16:39.209Z,99857.75
2022-12-11T20:19:09.211Z,99858.56
2022-12-11T20:21:38.621Z,99856.84
2022-12-11T20:24:09.184Z,99852.56
2022-12-11T20:26:38.271Z,99856.78
2022-12-11T20:29:08.548Z,99854.19
2022-12-11T20:31:37.813Z,99851.63
2022-12-11T20:34:07.803Z,99853.38
2022-12-11T20:36:36.504Z,99856.78
2022-12-11T20:39:06.327Z,99859.41
2022-12-11T20:41:36.498Z,99874.78
2022-12-11T20:44:04.920Z,99870.50
2022-12-11T20:46:34.320Z,99872.16
2022-12-11T20:49:02.776Z,99868.75
2022-12-11T20:51:32.914Z,99861.91
2022-12-11T20:54:01.437Z,99867.81
2022-12-11T20:56:31.362Z,99866.97
2022-12-11T20:59:02.427Z,99875.41
2022-12-11T21:01:33.267Z,99877.84
2022-12-11T21:04:02.344Z,99872.56
2022-12-11T21:06:33.037Z,99880.16
2022-12-11T21:09:03.410Z,99881.00
2022-12-11T21:11:31.770Z,99882.59
2022-12-11T21:14:01.665Z,99876.59
2022-12-11T21:16:30.744Z,99879.91
2022-12-11T21:19:00.342Z,99875.63
2022-12-11T21:21:28.756Z,99870.53
2022-12-11T21:23:57.237Z,99886.72
2022-12-11T21:26:25.890Z,99881.56
2022-12-11T21:28:54.531Z,99883.22
2022-12-11T21:31:24.704Z,99884.09
2022-12-11T21:33:53.649Z,99885.78
2022-12-11T21:36:22.248Z,99881.47
2022-12-11T21:38:51.873Z,99886.53
2022-12-11T21:41:23.570Z,99889.91
2022-12-11T21:46:43.709Z,99891.63
2022-12-11T21:49:12.637Z,99886.44
2022-12-11T21:51:47.110Z,99896.69
2022-12-11T21:54:18.213Z,99895.00
2022-12-11T21:56:47.349Z,99896.72
2022-12-11T21:59:16.066Z,99898.47
2022-12-11T22:01:47.200Z,99895.97
2022-12-11T22:04:16.795Z,99904.56
2022-12-11T22:06:47.368Z,99907.25
2022-12-11T22:09:17.962Z,99906.50
2022-12-11T22:11:47.754Z,99915.13
2022-12-11T22:14:18.647Z,99914.34
2022-12-11T22:16:49.363Z,99920.47
2022-12-11T22:19:18.306Z,99924.84
2022-12-11T22:21:46.653Z,99927.44
2022-12-11T22:24:15.188Z,99930.88
2022-12-11T22:26:43.784Z,99931.00
2022-12-11T22:29:12.135Z,99936.19
2022-12-11T22:31:40.519Z,99941.38
2022-12-11T22:34:10.295Z,99941.41
2022-12-11T22:36:39.024Z,99945.69
2022-12-11T22:39:07.627Z,99937.97
2022-12-11T22:41:41.940Z,99943.06
2022-12-11T22:44:16.028Z,99942.25
2022-12-11T22:46:49.666Z,99951.66
2022-12-11T22:49:20.747Z,99951.63
2022-12-11T22:51:50.250Z,99947.38
2022-12-11T22:54:18.699Z,99942.28
2022-12-11T22:56:47.232Z,99941.50
2022-12-11T22:59:15.867Z,99940.66
2022-12-11T23:01:44.360Z,99938.06
2022-12-11T23:04:12.770Z,99943.13
2022-12-11T23:06:47.058Z,99941.44
2022-12-11T23:09:19.978Z,99941.41
2022-12-11T23:11:48.562Z,99932.03
2022-12-11T23:14:18.377Z,99936.25
2022-12-11T23:16:46.845Z,99934.53
2022-12-11T23:19:18.524Z,99938.72
2022-12-11T23:21:50.890Z,99931.91
2022-12-11T23:24:19.394Z,99936.16
2022-12-11T23:26:48.247Z,99934.47
2022-12-11T23:29:16.972Z,99930.19
2022-12-11T23:31:45.271Z,99937.03
2022-12-11T23:34:13.559Z,99925.13
2022-12-11T23:36:41.961Z,99931.09
2022-12-11T23:39:11.914Z,99924.31
2022-12-11T23:41:40.264Z,99932.84
2022-12-11T23:44:08.588Z,99927.81
2022-12-11T23:46:37.056Z,99924.44
2022-12-11T23:49:07.161Z,99936.41
2022-12-11T23:51:37.266Z,99934.75
2022-12-11T23:54:05.707Z,99927.91
2022-12-11T23:56:35.474Z,99938.94
2022-12-11T23:59:04.133Z,99930.44
